createdAt,value
2019-01-31T00:00:41.788Z,63.30
2019-01-31T00:01:41.765Z,59.20
2019-01-31T00:02:41.750Z,60.10
2019-01-31T00:03:41.728Z,63.00
2019-01-31T00:04:41.692Z,63.00
2019-01-31T00:05:41.756Z,62.00
2019-01-31T00:06:41.644Z,59.90
2019-01-31T00:07:41.630Z,65.20
2019-01-31T00:08:45.975Z,60.40
2019-01-31T00:09:41.570Z,62.90
2019-01-31T00:10:41.550Z,61.30
2019-01-31T00:11:41.524Z,57.90
2019-01-31T00:12:41.503Z,58.70
2019-01-31T00:13:41.480Z,66.00
2019-01-31T00:14:41.447Z,60.50
2019-01-31T00:15:41.423Z,58.60
2019-01-31T00:16:41.400Z,53.20
2019-01-31T00:17:41.376Z,56.20
2019-01-31T00:18:41.351Z,53.80
2019-01-31T00:19:41.328Z,50.60
2019-01-31T00:20:41.302Z,52.40
2019-01-31T00:21:41.276Z,54.80
2019-01-31T00:22:41.259Z,50.60
2019-01-31T00:23:41.228Z,50.70
2019-01-31T00:24:41.208Z,50.70
2019-01-31T00:25:41.183Z,51.20
2019-01-31T00:26:41.153Z,50.90
2019-01-31T00:27:41.129Z,47.60
2019-01-31T00:28:41.107Z,50.70
2019-01-31T00:29:41.078Z,49.00
2019-01-31T00:30:41.060Z,51.20
2019-01-31T00:31:41.033Z,53.50
2019-01-31T00:32:41.007Z,50.80
2019-01-31T00:33:41.001Z,49.80
2019-01-31T00:34:40.966Z,51.30
2019-01-31T00:35:40.943Z,51.90
2019-01-31T00:36:40.915Z,48.20
2019-01-31T00:37:40.889Z,52.40
2019-01-31T00:38:40.860Z,49.90
2019-01-31T00:39:40.943Z,50.90
2019-01-31T00:40:40.814Z,48.60
2019-01-31T00:41:40.786Z,51.80
2019-01-31T00:42:40.774Z,50.50
2019-01-31T00:43:40.739Z,51.70
2019-01-31T00:44:40.712Z,49.90
2019-01-31T00:45:40.697Z,50.80
2019-01-31T00:46:40.668Z,48.50
2019-01-31T00:47:40.637Z,47.30
2019-01-31T00:48:40.614Z,48.60
2019-01-31T00:49:40.588Z,48.10
2019-01-31T00:50:40.563Z,51.20
2019-01-31T00:51:40.540Z,49.80
2019-01-31T00:52:40.520Z,49.60
2019-01-31T00:53:40.490Z,51.60
2019-01-31T00:54:40.467Z,51.70
2019-01-31T00:55:40.443Z,48.30
2019-01-31T00:56:40.423Z,51.20
2019-01-31T00:57:40.393Z,47.70
2019-01-31T00:58:40.370Z,50.30
2019-01-31T00:59:40.351Z,49.10
2019-01-31T01:00:40.321Z,50.90
2019-01-31T01:01:40.295Z,48.20
2019-01-31T01:02:40.274Z,47.30
2019-01-31T01:03:40.252Z,50.60
2019-01-31T01:04:40.221Z,49.10
2019-01-31T01:05:40.196Z,53.00
2019-01-31T01:06:40.176Z,50.60
2019-01-31T01:07:40.153Z,51.00
2019-01-31T01:08:40.119Z,52.80
2019-01-31T01:09:40.098Z,49.60
2019-01-31T01:10:40.071Z,54.40
2019-01-31T01:11:40.048Z,54.00
2019-01-31T01:12:40.043Z,54.90
2019-01-31T01:13:40.003Z,49.40
2019-01-31T01:14:39.975Z,49.20
2019-01-31T01:15:39.951Z,51.20
2019-01-31T01:16:40.023Z,53.70
2019-01-31T01:17:39.902Z,55.00
2019-01-31T01:18:39.878Z,49.50
2019-01-31T01:19:39.854Z,56.40
2019-01-31T01:20:39.827Z,56.40
2019-01-31T01:21:39.804Z,54.30
2019-01-31T01:22:39.781Z,53.70
2019-01-31T01:23:39.758Z,55.60
2019-01-31T01:24:39.729Z,53.40
2019-01-31T01:25:39.716Z,56.90
2019-01-31T01:26:39.680Z,50.80
2019-01-31T01:27:39.657Z,52.60
2019-01-31T01:28:39.636Z,55.20
2019-01-31T01:29:39.609Z,51.70
2019-01-31T01:30:39.588Z,54.10
2019-01-31T02:25:38.231Z,46.10
2019-01-31T02:26:38.207Z,44.10
2019-01-31T02:27:38.181Z,47.70
2019-01-31T02:28:38.155Z,45.30
2019-01-31T02:29:38.128Z,50.00
2019-01-31T02:30:38.104Z,41.50
2019-01-31T02:31:38.088Z,45.30
2019-01-31T02:32:38.060Z,47.10
2019-01-31T02:33:38.034Z,49.70
2019-01-31T02:34:38.009Z,45.00
2019-01-31T02:35:37.981Z,41.20
2019-01-31T02:36:37.959Z,44.40
2019-01-31T02:37:37.930Z,45.40
2019-01-31T02:38:37.908Z,42.70
2019-01-31T02:39:43.256Z,46.10
2019-01-31T02:40:37.856Z,46.40
2019-01-31T02:41:37.831Z,38.00
2019-01-31T02:42:37.805Z,42.30
2019-01-31T02:43:37.782Z,43.30
2019-01-31T02:44:37.759Z,45.00
2019-01-31T02:45:37.739Z,41.60
2019-01-31T02:46:37.707Z,40.90
2019-01-31T02:47:37.685Z,42.80
2019-01-31T02:48:37.663Z,44.90
2019-01-31T02:49:37.639Z,46.30
2019-01-31T02:50:37.606Z,42.40
2019-01-31T02:51:37.582Z,43.30
2019-01-31T02:52:37.556Z,40.00
2019-01-31T02:53:37.534Z,42.00
2019-01-31T02:54:37.510Z,37.10
2019-01-31T02:55:37.488Z,37.60
2019-01-31T02:56:37.460Z,42.40
2019-01-31T02:57:37.438Z,42.50
2019-01-31T02:58:37.413Z,41.70
2019-01-31T02:59:37.385Z,42.60
2019-01-31T03:00:37.364Z,43.90
2019-01-31T03:01:37.335Z,39.40
2019-01-31T03:02:37.310Z,37.90
2019-01-31T03:03:37.285Z,44.30
2019-01-31T03:04:37.259Z,39.60
2019-01-31T03:05:37.239Z,41.10
2019-01-31T03:06:37.210Z,44.50
2019-01-31T03:07:37.189Z,39.10
2019-01-31T03:08:37.175Z,40.90
2019-01-31T03:09:37.141Z,40.50
2019-01-31T03:10:39.374Z,38.60
2019-01-31T03:11:37.093Z,40.70
2019-01-31T03:12:37.067Z,41.30
2019-01-31T03:13:37.039Z,42.10
2019-01-31T03:14:37.015Z,41.10
2019-01-31T03:15:36.995Z,39.10
2019-01-31T03:16:36.965Z,42.10
2019-01-31T03:17:36.943Z,44.10
2019-01-31T03:18:36.914Z,40.00
2019-01-31T03:19:36.889Z,41.80
2019-01-31T03:20:36.866Z,43.10
2019-01-31T03:21:36.839Z,40.70
2019-01-31T03:22:36.816Z,39.30
2019-01-31T03:23:36.797Z,37.60
2019-01-31T03:24:36.768Z,36.40
2019-01-31T03:25:36.749Z,37.90
2019-01-31T03:26:36.719Z,40.20
2019-01-31T03:27:36.698Z,39.70
2019-01-31T03:28:36.675Z,36.60
2019-01-31T03:29:36.657Z,38.20
2019-01-31T03:30:36.626Z,37.10
2019-01-31T03:31:36.594Z,33.70
2019-01-31T03:32:36.580Z,33.80
2019-01-31T03:33:36.545Z,37.60
2019-01-31T03:34:36.521Z,32.80
2019-01-31T03:35:36.506Z,33.80
2019-01-31T03:36:36.469Z,37.30
2019-01-31T03:37:36.445Z,35.10
2019-01-31T03:38:36.422Z,36.00
2019-01-31T03:39:36.395Z,32.90
2019-01-31T03:40:36.378Z,31.60
2019-01-31T03:41:36.348Z,33.10
2019-01-31T03:42:36.326Z,33.40
2019-01-31T03:43:36.301Z,33.90
2019-01-31T03:44:36.274Z,31.40
2019-01-31T03:45:36.250Z,31.00
2019-01-31T03:46:36.232Z,29.70
2019-01-31T03:47:36.202Z,31.40
2019-01-31T03:48:36.173Z,33.00
2019-01-31T03:49:36.150Z,31.00
2019-01-31T03:50:36.134Z,34.60
2019-01-31T03:51:36.099Z,32.10
2019-01-31T03:52:36.076Z,29.00
2019-01-31T03:53:36.064Z,33.50
2019-01-31T03:54:36.026Z,31.00
2019-01-31T03:55:36.002Z,33.10
2019-01-31T03:56:35.977Z,30.10
2019-01-31T03:57:35.953Z,34.10
2019-01-31T03:58:35.936Z,33.50
2019-01-31T03:59:35.903Z,30.60
2019-01-31T04:00:35.875Z,31.60
2019-01-31T04:01:35.854Z,31.20
2019-01-31T04:02:35.830Z,32.40
2019-01-31T04:03:35.801Z,34.60
2019-01-31T04:04:35.775Z,32.90
2019-01-31T04:05:35.763Z,31.10
2019-01-31T04:06:35.729Z,30.20
2019-01-31T04:07:35.702Z,30.20
2019-01-31T04:08:35.678Z,32.80
2019-01-31T04:09:35.652Z,31.60
2019-01-31T04:10:35.626Z,33.60
2019-01-31T04:11:35.605Z,29.40
2019-01-31T04:12:35.576Z,32.20
2019-01-31T04:13:35.549Z,31.40
2019-01-31T04:14:35.526Z,29.80
2019-01-31T04:15:35.540Z,32.70
2019-01-31T04:16:35.476Z,33.60
2019-01-31T04:17:35.459Z,31.80
2019-01-31T04:18:35.430Z,31.00
2019-01-31T04:19:35.407Z,33.10
2019-01-31T04:20:35.380Z,30.40
2019-01-31T04:21:35.356Z,30.90
2019-01-31T04:22:35.328Z,33.60
2019-01-31T04:23:35.310Z,33.10
2019-01-31T04:24:35.278Z,29.80
2019-01-31T04:25:35.260Z,31.70
2019-01-31T04:26:35.230Z,32.70
2019-01-31T04:27:35.329Z,29.70
2019-01-31T04:28:35.177Z,33.00
2019-01-31T04:29:35.154Z,32.50
2019-01-31T04:30:35.131Z,32.20
2019-01-31T04:31:35.105Z,30.60
2019-01-31T04:32:35.079Z,33.20
2019-01-31T04:33:35.054Z,32.90
2019-01-31T04:34:35.033Z,32.70
2019-01-31T04:35:35.014Z,30.50
2019-01-31T04:36:34.989Z,33.10
2019-01-31T04:37:34.958Z,35.90
2019-01-31T04:38:34.939Z,34.10
2019-01-31T04:39:34.909Z,32.90
2019-01-31T04:40:34.882Z,35.10
2019-01-31T04:41:34.856Z,32.10
2019-01-31T04:42:34.837Z,33.50
2019-01-31T04:43:34.806Z,34.60
2019-01-31T04:44:34.782Z,32.30
2019-01-31T04:45:34.757Z,29.90
2019-01-31T04:46:34.737Z,33.90
2019-01-31T04:47:34.707Z,30.60
2019-01-31T04:48:34.679Z,33.50
2019-01-31T04:49:34.654Z,29.60
2019-01-31T04:50:34.639Z,29.90
2019-01-31T04:51:34.608Z,33.40
2019-01-31T04:52:34.583Z,31.90
2019-01-31T04:53:34.562Z,31.70
2019-01-31T04:54:34.538Z,31.80
2019-01-31T04:55:34.508Z,34.10
2019-01-31T04:56:34.483Z,33.20
2019-01-31T04:57:34.461Z,36.60
2019-01-31T04:58:34.433Z,32.00
2019-01-31T04:59:34.415Z,34.50
2019-01-31T05:00:34.382Z,34.70
2019-01-31T05:01:34.358Z,32.40
2019-01-31T05:02:34.335Z,32.20
2019-01-31T05:03:34.309Z,33.40
2019-01-31T05:04:34.295Z,33.40
2019-01-31T05:05:34.257Z,33.00
2019-01-31T05:06:34.234Z,32.70
2019-01-31T05:07:34.222Z,34.50
2019-01-31T05:08:34.189Z,32.60
2019-01-31T05:09:34.160Z,32.80
2019-01-31T05:10:42.653Z,32.40
2019-01-31T05:11:34.109Z,33.70
2019-01-31T05:12:34.089Z,32.70
2019-01-31T05:13:34.064Z,34.10
2019-01-31T05:14:34.040Z,35.70
2019-01-31T05:15:34.024Z,41.40
2019-01-31T05:16:33.990Z,34.50
2019-01-31T05:17:33.964Z,38.60
2019-01-31T05:18:33.941Z,38.30
2019-01-31T05:19:33.914Z,37.30
2019-01-31T05:20:33.896Z,35.40
2019-01-31T05:21:33.865Z,35.20
2019-01-31T05:22:33.842Z,35.20
2019-01-31T05:23:33.821Z,36.80
2019-01-31T05:24:33.792Z,36.00
2019-01-31T05:25:33.766Z,35.70
2019-01-31T05:26:33.742Z,36.70
2019-01-31T05:27:33.725Z,38.90
2019-01-31T05:28:33.695Z,38.20
2019-01-31T05:29:33.673Z,40.20
2019-01-31T05:30:33.667Z,37.30
2019-01-31T05:31:33.623Z,41.20
2019-01-31T05:32:33.594Z,38.70
2019-01-31T05:33:33.570Z,37.10
2019-01-31T05:34:33.556Z,38.70
2019-01-31T05:35:33.528Z,39.70
2019-01-31T05:36:33.492Z,38.50
2019-01-31T05:37:33.468Z,38.30
2019-01-31T05:38:33.444Z,41.30
2019-01-31T05:39:33.421Z,37.60
2019-01-31T05:40:33.404Z,37.50
2019-01-31T05:41:33.369Z,37.30
2019-01-31T05:42:33.346Z,40.40
2019-01-31T05:43:33.326Z,37.80
2019-01-31T05:44:33.300Z,41.40
2019-01-31T05:45:33.272Z,37.50
2019-01-31T05:46:33.248Z,38.30
2019-01-31T05:47:33.226Z,36.50
2019-01-31T05:48:33.202Z,44.70
2019-01-31T05:49:33.175Z,37.40
2019-01-31T05:50:33.151Z,39.50
2019-01-31T05:51:33.125Z,35.00
2019-01-31T05:52:33.098Z,36.70
2019-01-31T05:53:33.078Z,39.40
2019-01-31T05:54:33.051Z,39.00
2019-01-31T05:55:33.048Z,36.80
2019-01-31T05:56:33.033Z,35.40
2019-01-31T05:57:32.985Z,36.10
2019-01-31T05:58:32.954Z,30.70
2019-01-31T05:59:32.928Z,33.00
2019-01-31T06:00:32.912Z,36.40
2019-01-31T06:01:32.886Z,36.90
2019-01-31T06:02:32.853Z,36.10
2019-01-31T06:03:32.830Z,36.20
2019-01-31T06:04:32.820Z,34.20
2019-01-31T06:05:32.784Z,37.50
2019-01-31T06:06:32.760Z,33.90
2019-01-31T06:07:32.736Z,35.70
2019-01-31T06:08:32.707Z,34.90
2019-01-31T06:09:32.684Z,36.20
2019-01-31T06:10:33.637Z,40.10
2019-01-31T06:11:32.632Z,35.70
2019-01-31T06:12:32.609Z,36.20
2019-01-31T06:13:32.603Z,40.10
2019-01-31T06:14:32.561Z,39.10
2019-01-31T06:15:32.535Z,39.50
2019-01-31T06:16:32.512Z,39.20
2019-01-31T06:17:32.487Z,38.00
2019-01-31T06:18:32.466Z,37.80
2019-01-31T06:19:32.437Z,42.20
2019-01-31T06:20:32.411Z,41.30
2019-01-31T06:21:32.394Z,44.10
2019-01-31T06:22:32.363Z,44.90
2019-01-31T06:23:32.341Z,37.00
2019-01-31T06:24:32.311Z,42.80
2019-01-31T06:25:32.287Z,44.80
2019-01-31T06:26:32.263Z,47.20
2019-01-31T06:27:32.242Z,41.40
2019-01-31T06:28:32.216Z,42.80
2019-01-31T06:29:32.194Z,45.30
2019-01-31T06:30:32.167Z,44.70
2019-01-31T06:31:32.139Z,43.20
2019-01-31T06:32:32.118Z,40.90
2019-01-31T06:33:32.091Z,39.50
2019-01-31T06:34:32.077Z,47.60
2019-01-31T06:35:32.036Z,44.30
2019-01-31T06:36:32.010Z,44.70
2019-01-31T06:37:31.987Z,43.80
2019-01-31T06:38:31.964Z,45.20
2019-01-31T06:39:31.938Z,42.70
2019-01-31T06:40:31.908Z,49.10
2019-01-31T06:41:31.888Z,40.70
2019-01-31T06:42:31.859Z,43.60
2019-01-31T06:43:31.837Z,46.20
2019-01-31T06:44:31.814Z,46.70
2019-01-31T06:45:31.785Z,42.20
2019-01-31T06:46:31.759Z,41.70
2019-01-31T06:47:31.843Z,46.40
2019-01-31T06:48:33.981Z,46.20
2019-01-31T06:49:31.688Z,50.00
2019-01-31T06:50:31.656Z,49.50
2019-01-31T06:51:31.685Z,45.50
2019-01-31T06:52:31.605Z,49.20
2019-01-31T06:53:31.585Z,47.80
2019-01-31T06:54:31.560Z,45.80
2019-01-31T06:55:31.532Z,49.30
2019-01-31T06:56:31.507Z,47.70
2019-01-31T06:57:31.480Z,50.00
2019-01-31T06:58:31.454Z,46.10
2019-01-31T06:59:31.440Z,46.10
2019-01-31T07:00:31.402Z,46.40
2019-01-31T07:01:31.529Z,45.90
2019-01-31T07:02:31.350Z,46.00
2019-01-31T07:03:31.335Z,45.00
2019-01-31T07:04:31.299Z,48.60
2019-01-31T07:05:31.278Z,45.20
2019-01-31T07:06:31.251Z,44.60
2019-01-31T07:07:31.224Z,43.80
2019-01-31T07:08:31.197Z,45.10
2019-01-31T07:09:31.172Z,44.10
2019-01-31T07:10:31.181Z,45.40
2019-01-31T07:11:31.120Z,44.90
2019-01-31T07:12:31.101Z,43.70
2019-01-31T07:13:33.816Z,42.60
2019-01-31T07:14:31.042Z,44.10
2019-01-31T07:15:31.017Z,46.00
2019-01-31T07:16:31.010Z,41.80
2019-01-31T07:17:30.964Z,40.80
2019-01-31T07:18:30.946Z,43.50
2019-01-31T07:19:30.913Z,42.80
2019-01-31T07:20:30.890Z,43.50
2019-01-31T07:21:30.865Z,39.60
2019-01-31T07:22:30.838Z,42.20
2019-01-31T07:23:30.814Z,37.70
2019-01-31T07:24:30.793Z,39.50
2019-01-31T07:25:30.762Z,42.50
2019-01-31T07:26:30.737Z,40.00
2019-01-31T07:27:30.712Z,38.60
2019-01-31T07:28:30.688Z,38.60
2019-01-31T07:29:30.657Z,36.50
2019-01-31T07:30:30.641Z,39.10
2019-01-31T07:31:30.609Z,36.40
2019-01-31T07:32:30.583Z,35.70
2019-01-31T07:33:30.577Z,37.70
2019-01-31T07:34:30.532Z,39.40
2019-01-31T07:35:30.507Z,37.00
2019-01-31T07:36:30.485Z,37.90
2019-01-31T07:37:30.463Z,36.30
2019-01-31T07:38:30.431Z,37.10
2019-01-31T07:39:30.407Z,33.80
2019-01-31T07:40:30.379Z,35.90
2019-01-31T07:41:40.637Z,31.80
2019-01-31T07:42:30.333Z,32.80
2019-01-31T07:43:30.304Z,33.20
2019-01-31T07:44:30.279Z,34.20
2019-01-31T07:45:30.258Z,32.30
2019-01-31T07:46:30.229Z,36.30
2019-01-31T07:47:30.213Z,32.00
2019-01-31T07:48:30.541Z,29.40
2019-01-31T07:49:30.152Z,30.20
2019-01-31T07:50:30.128Z,31.90
2019-01-31T07:51:30.101Z,30.20
2019-01-31T07:52:30.076Z,31.70
2019-01-31T07:53:30.052Z,30.80
2019-01-31T07:54:30.027Z,30.40
2019-01-31T07:55:30.018Z,29.00
2019-01-31T07:56:29.988Z,28.10
2019-01-31T07:57:29.964Z,27.00
2019-01-31T07:58:29.931Z,25.90
2019-01-31T07:59:29.903Z,29.20
2019-01-31T08:00:29.889Z,24.90
2019-01-31T08:01:29.882Z,28.50
2019-01-31T08:02:29.867Z,25.60
2019-01-31T08:03:29.832Z,26.20
2019-01-31T08:04:29.908Z,27.40
2019-01-31T08:05:29.752Z,31.80
2019-01-31T08:06:29.726Z,29.10
2019-01-31T08:07:29.724Z,27.10
2019-01-31T08:08:29.684Z,26.70
2019-01-31T08:09:29.651Z,26.60
2019-01-31T08:10:29.624Z,26.80
2019-01-31T08:11:29.597Z,26.20
2019-01-31T08:12:29.583Z,23.80
2019-01-31T08:13:29.560Z,24.60
2019-01-31T08:14:29.532Z,25.20
2019-01-31T08:15:29.502Z,27.50
2019-01-31T08:16:29.475Z,25.80
2019-01-31T08:17:29.448Z,24.70
2019-01-31T08:18:29.438Z,24.60
2019-01-31T08:19:29.398Z,21.10
2019-01-31T08:20:29.374Z,22.50
2019-01-31T08:21:29.458Z,25.10
2019-01-31T08:22:29.323Z,21.90
2019-01-31T08:23:29.298Z,23.10
2019-01-31T08:24:29.273Z,21.70
2019-01-31T08:25:29.253Z,20.70
2019-01-31T08:26:29.222Z,19.70
2019-01-31T08:27:29.200Z,21.00
2019-01-31T08:28:29.173Z,19.90
2019-01-31T08:29:29.148Z,19.60
2019-01-31T08:30:29.128Z,22.00
2019-01-31T08:31:29.101Z,23.60
2019-01-31T08:32:29.111Z,23.40
2019-01-31T08:33:29.063Z,21.80
2019-01-31T08:34:29.084Z,22.40
2019-01-31T08:35:29.011Z,22.70
2019-01-31T08:36:28.986Z,23.90
2019-01-31T08:37:28.952Z,24.50
2019-01-31T08:38:28.933Z,23.60
2019-01-31T08:39:28.917Z,25.10
2019-01-31T08:40:28.881Z,24.70
2019-01-31T08:41:28.865Z,26.10
2019-01-31T08:42:28.831Z,24.10
2019-01-31T08:43:28.810Z,25.60
2019-01-31T08:44:28.795Z,26.60
2019-01-31T08:45:28.765Z,23.70
2019-01-31T08:46:28.739Z,23.60
2019-01-31T08:47:28.711Z,25.80
2019-01-31T08:48:28.685Z,23.20
2019-01-31T08:49:28.668Z,24.70
2019-01-31T08:50:28.637Z,29.00
2019-01-31T08:51:28.643Z,25.10
2019-01-31T08:52:28.589Z,26.30
2019-01-31T08:53:28.573Z,20.60
2019-01-31T08:54:28.549Z,21.10
2019-01-31T08:55:28.524Z,21.20
2019-01-31T08:56:28.507Z,21.20
2019-01-31T08:57:28.479Z,20.50
2019-01-31T08:58:28.451Z,18.30
2019-01-31T08:59:28.425Z,18.20
2019-01-31T09:00:28.400Z,23.10
2019-01-31T09:01:28.372Z,18.10
2019-01-31T09:02:28.353Z,18.70
2019-01-31T09:03:28.332Z,19.10
2019-01-31T09:04:28.299Z,20.50
2019-01-31T09:05:28.277Z,19.40
2019-01-31T09:06:28.251Z,17.90
2019-01-31T09:07:29.365Z,17.70
2019-01-31T09:08:28.204Z,19.30
2019-01-31T09:09:28.180Z,18.20
2019-01-31T09:10:28.157Z,21.20
2019-01-31T09:11:28.132Z,19.10
2019-01-31T09:12:28.109Z,18.30
2019-01-31T09:13:28.089Z,18.70
2019-01-31T09:14:28.060Z,19.30
2019-01-31T09:15:28.036Z,18.90
2019-01-31T09:16:28.016Z,17.70
2019-01-31T09:17:27.987Z,16.60
2019-01-31T09:18:27.961Z,16.80
2019-01-31T09:19:27.942Z,19.60
2019-01-31T09:20:27.913Z,19.00
2019-01-31T09:21:27.890Z,21.30
2019-01-31T09:22:27.871Z,17.10
2019-01-31T09:23:27.842Z,18.20
2019-01-31T09:24:27.819Z,18.80
2019-01-31T09:25:27.792Z,18.60
2019-01-31T09:26:27.774Z,16.20
2019-01-31T09:27:27.757Z,17.90
2019-01-31T09:28:27.722Z,19.00
2019-01-31T09:29:27.695Z,15.70
2019-01-31T09:30:27.685Z,17.30
2019-01-31T09:31:27.646Z,19.00
2019-01-31T09:32:27.626Z,18.50
2019-01-31T09:33:27.601Z,18.20
2019-01-31T09:34:27.580Z,18.50
2019-01-31T09:35:27.557Z,16.50
2019-01-31T09:36:27.528Z,15.60
2019-01-31T09:37:27.504Z,15.00
2019-01-31T09:38:27.488Z,18.10
2019-01-31T09:39:27.455Z,15.00
2019-01-31T09:40:27.429Z,13.60
2019-01-31T09:41:27.405Z,16.50
2019-01-31T09:42:27.380Z,17.40
2019-01-31T09:43:27.357Z,18.00
2019-01-31T09:44:27.332Z,15.30
2019-01-31T09:45:27.307Z,17.90
2019-01-31T09:46:27.283Z,16.20
2019-01-31T09:47:27.386Z,14.70
2019-01-31T09:48:27.236Z,16.10
2019-01-31T09:49:27.211Z,16.20
2019-01-31T09:50:28.174Z,18.90
2019-01-31T09:51:27.162Z,21.50
2019-01-31T09:52:27.139Z,19.20
2019-01-31T09:53:27.114Z,20.30
2019-01-31T09:54:27.090Z,20.50
2019-01-31T09:55:27.065Z,19.50
2019-01-31T09:56:27.045Z,19.40
2019-01-31T09:57:27.023Z,16.20
2019-01-31T09:58:28.004Z,17.00
2019-01-31T09:59:26.970Z,20.80
2019-01-31T10:00:27.933Z,20.50
2019-01-31T10:01:26.921Z,19.30
2019-01-31T10:02:26.896Z,19.80
2019-01-31T10:03:26.872Z,18.80
2019-01-31T10:04:26.854Z,23.20
2019-01-31T10:05:26.826Z,19.10
2019-01-31T10:06:26.798Z,20.80
2019-01-31T10:07:26.823Z,20.80
2019-01-31T10:08:26.753Z,22.20
2019-01-31T10:09:26.728Z,20.80
2019-01-31T10:10:26.756Z,22.80
2019-01-31T10:11:26.691Z,20.50
2019-01-31T10:12:37.593Z,20.50
2019-01-31T10:13:26.632Z,19.70
2019-01-31T10:14:26.631Z,21.10
2019-01-31T10:15:26.587Z,21.00
2019-01-31T10:16:26.599Z,23.00
2019-01-31T10:17:26.535Z,22.10
2019-01-31T10:18:26.516Z,21.10
2019-01-31T10:19:26.521Z,22.70
2019-01-31T10:20:26.524Z,20.90
2019-01-31T10:21:26.484Z,23.00
2019-01-31T10:22:26.473Z,20.00
2019-01-31T10:23:26.449Z,20.00
2019-01-31T10:24:26.374Z,28.90
2019-01-31T10:25:26.334Z,23.80
2019-01-31T10:26:26.309Z,23.40
2019-01-31T10:27:26.286Z,19.90
2019-01-31T10:28:26.260Z,24.90
2019-01-31T10:29:26.247Z,24.30
2019-01-31T10:30:26.210Z,24.30
2019-01-31T10:31:26.186Z,25.80
2019-01-31T10:32:26.161Z,22.40
2019-01-31T10:33:26.139Z,21.20
2019-01-31T10:34:26.119Z,23.70
2019-01-31T10:35:26.095Z,22.80
2019-01-31T10:36:26.065Z,25.40
2019-01-31T10:37:26.039Z,23.00
2019-01-31T10:38:26.015Z,24.80
2019-01-31T10:39:25.991Z,21.50
2019-01-31T10:40:25.972Z,25.10
2019-01-31T10:41:25.942Z,24.40
2019-01-31T10:42:25.917Z,22.60
2019-01-31T10:43:25.896Z,23.80
2019-01-31T10:44:25.869Z,23.50
2019-01-31T10:45:25.860Z,25.30
2019-01-31T10:46:25.831Z,22.50
2019-01-31T10:47:25.798Z,23.10
2019-01-31T10:48:25.772Z,23.30
2019-01-31T10:49:25.746Z,25.30
2019-01-31T10:50:25.721Z,22.50
2019-01-31T10:51:25.709Z,23.90
2019-01-31T10:52:25.672Z,24.00
2019-01-31T10:53:25.665Z,22.10
2019-01-31T10:54:25.628Z,19.80
2019-01-31T10:55:25.600Z,23.00
2019-01-31T10:56:25.579Z,20.20
2019-01-31T10:57:25.551Z,22.60
2019-01-31T10:58:25.600Z,21.30
2019-01-31T10:59:25.507Z,21.00
2019-01-31T11:00:25.483Z,19.40
2019-01-31T11:01:25.459Z,19.20
2019-01-31T11:02:25.437Z,19.10
2019-01-31T11:03:25.409Z,19.20
2019-01-31T11:04:25.384Z,21.30
2019-01-31T11:05:25.362Z,21.90
2019-01-31T11:06:25.341Z,24.90
2019-01-31T11:07:25.317Z,27.30
2019-01-31T11:08:25.291Z,57.60
2019-01-31T11:09:25.267Z,23.30
2019-01-31T11:10:25.242Z,33.80
2019-01-31T11:11:25.220Z,30.70
2019-01-31T11:12:25.201Z,20.70
2019-01-31T11:13:25.174Z,17.90
2019-01-31T11:14:25.160Z,18.50
2019-01-31T11:15:25.139Z,17.70
2019-01-31T11:16:25.100Z,20.90
2019-01-31T11:17:25.075Z,21.00
2019-01-31T11:18:25.053Z,18.40
2019-01-31T11:19:25.035Z,19.90
2019-01-31T11:20:25.014Z,20.40
2019-01-31T11:21:24.979Z,18.70
2019-01-31T11:22:24.956Z,19.00
2019-01-31T11:23:24.937Z,19.60
2019-01-31T11:24:24.962Z,17.40
2019-01-31T11:25:24.884Z,19.20
2019-01-31T11:26:24.863Z,18.70
2019-01-31T11:27:24.846Z,21.80
2019-01-31T11:28:24.831Z,19.10
2019-01-31T11:29:24.797Z,18.00
2019-01-31T11:30:24.770Z,21.10
2019-01-31T11:31:24.747Z,20.10
2019-01-31T11:32:24.722Z,18.50
2019-01-31T11:33:24.704Z,22.10
2019-01-31T11:34:32.629Z,20.10
2019-01-31T11:35:24.651Z,22.10
2019-01-31T11:36:24.629Z,23.00
2019-01-31T11:37:24.605Z,20.90
2019-01-31T11:38:24.578Z,20.50
2019-01-31T11:39:24.567Z,21.60
2019-01-31T11:40:24.535Z,23.50
2019-01-31T11:41:24.511Z,21.00
2019-01-31T11:42:24.484Z,24.70
2019-01-31T11:43:24.460Z,21.80
2019-01-31T11:44:24.437Z,20.20
2019-01-31T11:45:24.423Z,19.60
2019-01-31T11:46:24.389Z,24.10
2019-01-31T11:47:24.367Z,21.40
2019-01-31T11:48:24.353Z,20.80
2019-01-31T11:49:24.321Z,22.40
2019-01-31T11:50:24.305Z,21.40
2019-01-31T11:51:24.276Z,20.80
2019-01-31T11:52:24.248Z,21.40
2019-01-31T11:53:24.224Z,24.10
2019-01-31T11:54:24.205Z,19.60
2019-01-31T11:55:24.185Z,19.80
2019-01-31T11:56:24.164Z,18.90
2019-01-31T11:57:24.132Z,18.90
2019-01-31T11:58:24.112Z,22.30
2019-01-31T11:59:24.087Z,23.00
2019-01-31T12:00:24.063Z,20.40
2019-01-31T12:01:24.040Z,21.20
2019-01-31T12:02:24.019Z,18.70
2019-01-31T12:03:23.995Z,19.50
2019-01-31T12:04:23.972Z,17.60
2019-01-31T12:05:23.949Z,18.20
2019-01-31T12:06:23.918Z,19.20
2019-01-31T12:07:23.896Z,15.80
2019-01-31T12:08:23.885Z,18.30
2019-01-31T12:09:23.859Z,16.40
2019-01-31T12:10:23.831Z,16.90
2019-01-31T12:11:23.807Z,17.50
2019-01-31T12:12:23.779Z,15.90
2019-01-31T12:13:23.957Z,15.00
2019-01-31T12:14:23.735Z,15.30
2019-01-31T12:15:23.713Z,17.90
2019-01-31T12:16:23.691Z,16.00
2019-01-31T12:17:23.671Z,16.80
2019-01-31T12:18:23.770Z,14.90
2019-01-31T12:19:23.633Z,15.80
2019-01-31T12:20:23.607Z,16.70
2019-01-31T12:21:23.576Z,14.50
2019-01-31T12:22:23.553Z,16.50
2019-01-31T12:23:23.591Z,16.10
2019-01-31T12:24:23.509Z,14.60
2019-01-31T12:25:23.493Z,13.90
2019-01-31T12:26:23.469Z,16.20
2019-01-31T12:27:23.446Z,13.40
2019-01-31T12:28:23.415Z,14.10
2019-01-31T12:29:23.395Z,14.80
2019-01-31T12:30:23.382Z,15.20
2019-01-31T12:31:23.351Z,14.00
2019-01-31T12:32:23.327Z,17.70
2019-01-31T12:33:23.309Z,16.90
2019-01-31T12:34:23.277Z,16.40
2019-01-31T12:35:23.258Z,15.80
2019-01-31T12:36:23.241Z,15.60
2019-01-31T12:37:23.215Z,19.00
2019-01-31T12:38:23.196Z,17.50
2019-01-31T12:39:23.164Z,15.30
2019-01-31T12:40:23.145Z,15.90
2019-01-31T12:41:23.130Z,16.60
2019-01-31T12:42:23.097Z,14.50
2019-01-31T12:43:34.425Z,15.30
2019-01-31T12:44:23.057Z,15.00
2019-01-31T12:45:23.027Z,15.90
2019-01-31T12:46:23.011Z,14.80
2019-01-31T12:47:22.983Z,14.50
2019-01-31T12:48:22.959Z,14.90
2019-01-31T12:49:22.939Z,16.00
2019-01-31T12:50:22.914Z,14.40
2019-01-31T12:51:22.889Z,17.60
2019-01-31T12:52:22.872Z,15.50
2019-01-31T12:53:22.846Z,14.10
2019-01-31T12:54:22.831Z,17.10
2019-01-31T12:55:22.802Z,15.70
2019-01-31T12:56:22.780Z,15.20
2019-01-31T12:57:22.762Z,15.20
2019-01-31T12:58:33.032Z,19.60
2019-01-31T12:59:22.711Z,14.00
2019-01-31T13:00:22.689Z,15.60
2019-01-31T13:01:22.662Z,16.20
2019-01-31T13:02:22.648Z,17.00
2019-01-31T13:03:22.627Z,15.70
2019-01-31T13:04:22.603Z,17.10
2019-01-31T13:05:22.570Z,16.30
2019-01-31T13:06:22.554Z,16.00
2019-01-31T13:07:22.535Z,17.30
2019-01-31T13:08:22.513Z,16.30
2019-01-31T13:09:22.479Z,17.60
2019-01-31T13:10:22.460Z,17.60
2019-01-31T13:11:22.440Z,15.60
2019-01-31T13:12:22.412Z,15.90
2019-01-31T13:13:22.396Z,16.50
2019-01-31T13:14:22.363Z,17.30
2019-01-31T13:15:22.352Z,18.00
2019-01-31T13:16:22.323Z,16.00
2019-01-31T13:17:22.296Z,18.20
2019-01-31T13:18:22.273Z,19.00
2019-01-31T13:19:22.255Z,18.80
2019-01-31T13:20:22.224Z,18.40
2019-01-31T13:21:22.203Z,17.90
2019-01-31T13:22:22.176Z,19.00
2019-01-31T13:23:22.154Z,18.70
2019-01-31T13:24:22.127Z,19.10
2019-01-31T13:25:22.104Z,18.60
2019-01-31T13:26:22.085Z,21.40
2019-01-31T13:27:22.066Z,19.20
2019-01-31T13:28:22.039Z,19.50
2019-01-31T13:29:22.012Z,19.50
2019-01-31T13:30:21.988Z,20.50
2019-01-31T13:31:21.963Z,22.50
2019-01-31T13:32:21.955Z,20.40
2019-01-31T13:33:21.955Z,20.30
2019-01-31T13:34:21.904Z,20.50
2019-01-31T13:35:21.877Z,20.80
2019-01-31T13:36:21.847Z,21.80
2019-01-31T13:37:21.825Z,22.30
2019-01-31T13:38:21.807Z,20.20
2019-01-31T13:39:21.774Z,20.50
2019-01-31T13:40:21.764Z,20.60
2019-01-31T13:41:21.732Z,21.70
2019-01-31T13:42:21.709Z,23.40
2019-01-31T13:43:21.697Z,19.90
2019-01-31T13:44:21.675Z,22.70
2019-01-31T13:45:21.639Z,19.30
2019-01-31T13:46:21.615Z,21.70